sensor_id;sensor_type;location;lat;lon;timestamp;pressure;altitude;pressure_sealevel;temperature;humidity
57628;BME280;43451;49.060;10.616;2023-04-23T00:01:11;96094.38;;;12.50;100.00
57628;BME280;43451;49.060;10.616;2023-04-23T00:03:38;96087.47;;;12.46;100.00
57628;BME280;43451;49.060;10.616;2023-04-23T00:06:05;96091.72;;;12.27;100.00
57628;BME280;43451;49.060;10.616;2023-04-23T00:08:32;96080.41;;;12.28;100.00
57628;BME280;43451;49.060;10.616;2023-04-23T00:10:58;96068.88;;;12.21;100.00
57628;BME280;43451;49.060;10.616;2023-04-23T00:13:23;96079.56;;;12.12;100.00
57628;BME280;43451;49.060;10.616;2023-04-23T00:15:49;96061.59;;;12.14;100.00
57628;BME280;43451;49.060;10.616;2023-04-23T00:18:14;96066.63;;;12.16;100.00
57628;BME280;43451;49.060;10.616;2023-04-23T00:20:41;96069.16;;;12.26;100.00
57628;BME280;43451;49.060;10.616;2023-04-23T00:23:06;96071.91;;;12.46;100.00
57628;BME280;43451;49.060;10.616;2023-04-23T00:25:31;96069.19;;;12.46;100.00
57628;BME280;43451;49.060;10.616;2023-04-23T00:27:57;96070.56;;;12.54;100.00
57628;BME280;43451;49.060;10.616;2023-04-23T00:30:22;96071.00;;;12.53;100.00
57628;BME280;43451;49.060;10.616;2023-04-23T00:32:48;96067.91;;;12.51;100.00
57628;BME280;43451;49.060;10.616;2023-04-23T00:35:13;96075.38;;;12.47;100.00
57628;BME280;43451;49.060;10.616;2023-04-23T00:37:38;96062.53;;;12.47;100.00
57628;BME280;43451;49.060;10.616;2023-04-23T00:40:04;96058.75;;;12.41;100.00
57628;BME280;43451;49.060;10.616;2023-04-23T00:42:29;96056.09;;;12.18;100.00
57628;BME280;43451;49.060;10.616;2023-04-23T00:44:55;96057.81;;;12.08;100.00
57628;BME280;43451;49.060;10.616;2023-04-23T00:47:21;96059.31;;;11.89;100.00
57628;BME280;43451;49.060;10.616;2023-04-23T00:49:46;96070.69;;;11.84;100.00
57628;BME280;43451;49.060;10.616;2023-04-23T00:52:12;96067.25;;;11.80;100.00
57628;BME280;43451;49.060;10.616;2023-04-23T00:54:38;96059.09;;;11.80;100.00
57628;BME280;43451;49.060;10.616;2023-04-23T00:57:03;96066.13;;;11.77;100.00
57628;BME280;43451;49.060;10.616;2023-04-23T00:59:29;96059.03;;;11.60;100.00
57628;BME280;43451;49.060;10.616;2023-04-23T01:01:55;96051.50;;;11.44;100.00
57628;BME280;43451;49.060;10.616;2023-04-23T01:04:20;96066.31;;;11.43;100.00
57628;BME280;43451;49.060;10.616;2023-04-23T01:06:46;96065.22;;;11.37;100.00
57628;BME280;43451;49.060;10.616;2023-04-23T01:09:12;96067.09;;;11.17;100.00
57628;BME280;43451;49.060;10.616;2023-04-23T01:11:39;96071.81;;;11.12;100.00
57628;BME280;43451;49.060;10.616;2023-04-23T01:14:06;96069.56;;;11.07;100.00
57628;BME280;43451;49.060;10.616;2023-04-23T01:16:32;96078.13;;;11.06;100.00
57628;BME280;43451;49.060;10.616;2023-04-23T01:18:58;96072.78;;;10.99;100.00
57628;BME280;43451;49.060;10.616;2023-04-23T01:21:24;96065.91;;;10.90;100.00
57628;BME280;43451;49.060;10.616;2023-04-23T01:23:49;96069.44;;;10.87;100.00
57628;BME280;43451;49.060;10.616;2023-04-23T01:26:14;96062.31;;;10.97;100.00
57628;BME280;43451;49.060;10.616;2023-04-23T01:28:41;96064.31;;;10.93;100.00
57628;BME280;43451;49.060;10.616;2023-04-23T01:31:07;96068.06;;;11.03;100.00
57628;BME280;43451;49.060;10.616;2023-04-23T01:33:32;96059.97;;;10.99;100.00
57628;BME280;43451;49.060;10.616;2023-04-23T01:35:58;96061.69;;;11.13;100.00
57628;BME280;43451;49.060;10.616;2023-04-23T01:38:24;96069.50;;;11.11;100.00
57628;BME280;43451;49.060;10.616;2023-04-23T01:40:49;96071.16;;;11.05;100.00
57628;BME280;43451;49.060;10.616;2023-04-23T01:43:15;96071.84;;;11.09;100.00
57628;BME280;43451;49.060;10.616;2023-04-23T01:45:41;96070.03;;;11.26;100.00
57628;BME280;43451;49.060;10.616;2023-04-23T01:50:34;96079.81;;;11.97;100.00
57628;BME280;43451;49.060;10.616;2023-04-23T01:52:59;96083.22;;;12.01;100.00
57628;BME280;43451;49.060;10.616;2023-04-23T01:55:24;96092.22;;;12.22;100.00
57628;BME280;43451;49.060;10.616;2023-04-23T01:57:50;96083.00;;;11.92;100.00
57628;BME280;43451;49.060;10.616;2023-04-23T02:00:15;96083.50;;;11.87;100.00
57628;BME280;43451;49.060;10.616;2023-04-23T02:02:42;96090.56;;;11.81;100.00
57628;BME280;43451;49.060;10.616;2023-04-23T02:05:09;96092.16;;;11.78;100.00
57628;BME280;43451;49.060;10.616;2023-04-23T02:07:35;96092.69;;;11.70;100.00
57628;BME280;43451;49.060;10.616;2023-04-23T02:10:01;96084.25;;;11.64;100.00
57628;BME280;43451;49.060;10.616;2023-04-23T02:12:26;96098.03;;;11.77;100.00
57628;BME280;43451;49.060;10.616;2023-04-23T02:14:52;96084.13;;;11.71;100.00
57628;BME280;43451;49.060;10.616;2023-04-23T02:17:20;96091.91;;;11.69;100.00
57628;BME280;43451;49.060;10.616;2023-04-23T02:19:47;96095.47;;;11.66;100.00
57628;BME280;43451;49.060;10.616;2023-04-23T02:22:12;96098.72;;;11.81;100.00
57628;BME280;43451;49.060;10.616;2023-04-23T02:24:38;96089.56;;;11.95;100.00
57628;BME280;43451;49.060;10.616;2023-04-23T02:27:03;96098.72;;;11.81;100.00
57628;BME280;43451;49.060;10.616;2023-04-23T02:29:28;96095.47;;;11.66;100.00
57628;BME280;43451;49.060;10.616;2023-04-23T02:31:54;96100.66;;;11.57;100.00
57628;BME280;43451;49.060;10.616;2023-04-23T02:34:19;96095.97;;;11.57;100.00
57628;BME280;43451;49.060;10.616;2023-04-23T02:36:44;96104.38;;;11.67;100.00
57628;BME280;43451;49.060;10.616;2023-04-23T02:39:10;96097.22;;;11.76;100.00
57628;BME280;43451;49.060;10.616;2023-04-23T02:41:36;96106.47;;;11.82;100.00
57628;BME280;43451;49.060;10.616;2023-04-23T02:44:01;96106.06;;;11.84;100.00
57628;BME280;43451;49.060;10.616;2023-04-23T02:46:26;96119.44;;;11.98;100.00
57628;BME280;43451;49.060;10.616;2023-04-23T02:48:52;96110.81;;;12.03;100.00
57628;BME280;43451;49.060;10.616;2023-04-23T02:51:17;96111.78;;;11.93;100.00
57628;BME280;43451;49.060;10.616;2023-04-23T02:53:42;96111.41;;;11.91;100.00
57628;BME280;43451;49.060;10.616;2023-04-23T02:56:08;96120.47;;;11.84;100.00
57628;BME280;43451;49.060;10.616;2023-04-23T02:58:33;96119.13;;;11.69;100.00
57628;BME280;43451;49.060;10.616;2023-04-23T03:00:58;96108.09;;;11.80;100.00
57628;BME280;43451;49.060;10.616;2023-04-23T03:03:24;96127.22;;;11.73;100.00
57628;BME280;43451;49.060;10.616;2023-04-23T03:05:50;96119.94;;;11.93;100.00
57628;BME280;43451;49.060;10.616;2023-04-23T03:08:16;96126.53;;;11.92;100.00
57628;BME280;43451;49.060;10.616;2023-04-23T03:10:41;96120.63;;;11.97;100.00
57628;BME280;43451;49.060;10.616;2023-04-23T03:13:06;96129.75;;;11.87;100.00
57628;BME280;43451;49.060;10.616;2023-04-23T03:15:32;96120.47;;;11.84;100.00
57628;BME280;43451;49.060;10.616;2023-04-23T03:17:57;96130.09;;;11.89;100.00
57628;BME280;43451;49.060;10.616;2023-04-23T03:20:23;96125.84;;;11.88;100.00
57628;BME280;43451;49.060;10.616;2023-04-23T03:22:48;96125.56;;;11.79;100.00
57628;BME280;43451;49.060;10.616;2023-04-23T03:25:14;96128.78;;;11.74;100.00
57628;BME280;43451;49.060;10.616;2023-04-23T03:27:39;96123.28;;;11.77;100.00
57628;BME280;43451;49.060;10.616;2023-04-23T03:30:05;96130.09;;;11.89;100.00
57628;BME280;43451;49.060;10.616;2023-04-23T03:32:32;96130.09;;;11.89;100.00
57628;BME280;43451;49.060;10.616;2023-04-23T03:34:57;96127.72;;;11.68;100.00
57628;BME280;43451;49.060;10.616;2023-04-23T03:37:22;96140.31;;;11.58;100.00
57628;BME280;43451;49.060;10.616;2023-04-23T03:39:48;96139.31;;;11.72;100.00
57628;BME280;43451;49.060;10.616;2023-04-23T03:42:13;96143.16;;;11.74;100.00
57628;BME280;43451;49.060;10.616;2023-04-23T03:44:38;96142.97;;;11.61;100.00
57628;BME280;43451;49.060;10.616;2023-04-23T03:47:04;96139.41;;;11.65;100.00
57628;BME280;43451;49.060;10.616;2023-04-23T03:49:29;96139.69;;;11.70;100.00
57628;BME280;43451;49.060;10.616;2023-04-23T03:51:54;96137.78;;;11.71;100.00
57628;BME280;43451;49.060;10.616;2023-04-23T03:54:20;96134.69;;;11.69;100.00
57628;BME280;43451;49.060;10.616;2023-04-23T03:56:47;96139.81;;;11.63;100.00
57628;BME280;43451;49.060;10.616;2023-04-23T03:59:12;96138.03;;;11.53;100.00
57628;BME280;43451;49.060;10.616;2023-04-23T04:01:37;96136.84;;;11.54;100.00
57628;BME280;43451;49.060;10.616;2023-04-23T04:04:03;96140.69;;;11.56;100.00
57628;BME280;43451;49.060;10.616;2023-04-23T04:06:28;96144.19;;;11.57;100.00
57628;BME280;43451;49.060;10.616;2023-04-23T04:08:53;96143.41;;;11.56;100.00
57628;BME280;43451;49.060;10.616;2023-04-23T04:11:19;96147.78;;;11.50;100.00
57628;BME280;43451;49.060;10.616;2023-04-23T04:13:44;96138.09;;;11.49;100.00
57628;BME280;43451;49.060;10.616;2023-04-23T04:16:10;96145.56;;;11.69;100.00
57628;BME280;43451;49.060;10.616;2023-04-23T04:18:35;96144.13;;;11.60;100.00
57628;BME280;43451;49.060;10.616;2023-04-23T04:21:00;96153.59;;;11.52;100.00
57628;BME280;43451;49.060;10.616;2023-04-23T04:23:26;96150.69;;;11.63;100.00
57628;BME280;43451;49.060;10.616;2023-04-23T04:25:51;96153.16;;;11.81;100.00
57628;BME280;43451;49.060;10.616;2023-04-23T04:28:20;96158.81;;;11.67;100.00
57628;BME280;43451;49.060;10.616;2023-04-23T04:30:45;96158.09;;;11.62;100.00
57628;BME280;43451;49.060;10.616;2023-04-23T04:33:13;96163.66;;;11.55;100.00
57628;BME280;43451;49.060;10.616;2023-04-23T04:35:39;96165.81;;;11.68;100.00
57628;BME280;43451;49.060;10.616;2023-04-23T04:38:04;96171.00;;;11.58;100.00
57628;BME280;43451;49.060;10.616;2023-04-23T04:40:29;96160.41;;;11.64;100.00
57628;BME280;43451;49.060;10.616;2023-04-23T04:42:55;96141.13;;;11.55;100.00
57628;BME280;43451;49.060;10.616;2023-04-23T04:45:21;96155.00;;;11.60;100.00
57628;BME280;43451;49.060;10.616;2023-04-23T04:47:47;96150.47;;;11.27;100.00
57628;BME280;43451;49.060;10.616;2023-04-23T04:50:12;96148.81;;;11.33;100.00
57628;BME280;43451;49.060;10.616;2023-04-23T04:52:37;96148.56;;;11.24;100.00
57628;BME280;43451;49.060;10.616;2023-04-23T04:55:03;96160.03;;;11.35;100.00
57628;BME280;43451;49.060;10.616;2023-04-23T04:57:30;96178.22;;;11.42;100.00
57628;BME280;43451;49.060;10.616;2023-04-23T04:59:56;96169.34;;;11.37;100.00
57628;BME280;43451;49.060;10.616;2023-04-23T05:02:21;96174.22;;;11.23;100.00
57628;BME280;43451;49.060;10.616;2023-04-23T05:04:47;96166.66;;;11.34;100.00
57628;BME280;43451;49.060;10.616;2023-04-23T05:07:13;96162.22;;;11.20;100.00
57628;BME280;43451;49.060;10.616;2023-04-23T05:09:38;96172.22;;;11.27;100.00
57628;BME280;43451;49.060;10.616;2023-04-23T05:12:03;96175.38;;;11.22;100.00
57628;BME280;43451;49.060;10.616;2023-04-23T05:14:31;96178.25;;;11.38;100.00
57628;BME280;43451;49.060;10.616;2023-04-23T05:16:57;96184.19;;;11.33;100.00
57628;BME280;43451;49.060;10.616;2023-04-23T05:19:22;96185.00;;;11.30;100.00
57628;BME280;43451;49.060;10.616;2023-04-23T05:21:47;96187.53;;;11.13;100.00
57628;BME280;43451;49.060;10.616;2023-04-23T05:24:13;96189.94;;;11.08;100.00
57628;BME280;43451;49.060;10.616;2023-04-23T05:26:38;96192.16;;;11.17;100.00
57628;BME280;43451;49.060;10.616;2023-04-23T05:29:03;96195.28;;;11.15;100.00
57628;BME280;43451;49.060;10.616;2023-04-23T05:31:29;96197.00;;;11.02;100.00
57628;BME280;43451;49.060;10.616;2023-04-23T05:33:54;96199.22;;;11.10;100.00
57628;BME280;43451;49.060;10.616;2023-04-23T05:36:19;96200.00;;;11.11;100.00
57628;BME280;43451;49.060;10.616;2023-04-23T05:38:45;96189.28;;;10.97;100.00
57628;BME280;43451;49.060;10.616;2023-04-23T05:41:11;96192.09;;;10.89;100.00
57628;BME280;43451;49.060;10.616;2023-04-23T05:43:36;96191.75;;;10.84;100.00
57628;BME280;43451;49.060;10.616;2023-04-23T05:46:01;96195.28;;;10.81;100.00
57628;BME280;43451;49.060;10.616;2023-04-23T05:48:28;96195.00;;;10.75;100.00
57628;BME280;43451;49.060;10.616;2023-04-23T05:50:54;96189.56;;;10.72;100.00
57628;BME280;43451;49.060;10.616;2023-04-23T05:53:19;96202.72;;;10.77;100.00
57628;BME280;43451;49.060;10.616;2023-04-23T05:55:44;96190.75;;;10.71;100.00
57628;BME280;43451;49.060;10.616;2023-04-23T05:58:10;96196.88;;;10.78;100.00
57628;BME280;43451;49.060;10.616;2023-04-23T06:00:35;96198.34;;;10.86;100.00
57628;BME280;43451;49.060;10.616;2023-04-23T06:03:01;96202.47;;;10.98;100.00
57628;BME280;43451;49.060;10.616;2023-04-23T06:05:26;96208.44;;;11.20;100.00
57628;BME280;43451;49.060;10.616;2023-04-23T06:07:52;96204.56;;;11.18;100.00
57628;BME280;43451;49.060;10.616;2023-04-23T06:10:17;96204.75;;;11.34;100.00
57628;BME280;43451;49.060;10.616;2023-04-23T06:12:43;96207.47;;;11.34;100.00
57628;BME280;43451;49.060;10.616;2023-04-23T06:15:08;96209.00;;;11.35;100.00
57628;BME280;43451;49.060;10.616;2023-04-23T06:17:34;96205.25;;;11.25;100.00
57628;BME280;43451;49.060;10.616;2023-04-23T06:20:00;96212.19;;;11.30;100.00
57628;BME280;43451;49.060;10.616;2023-04-23T06:22:25;96205.47;;;11.38;100.00
57628;BME280;43451;49.060;10.616;2023-04-23T06:24:50;96194.09;;;11.47;100.00
57628;BME280;43451;49.060;10.616;2023-04-23T06:27:16;96196.31;;;11.55;100.00
57628;BME280;43451;49.060;10.616;2023-04-23T06:29:41;96208.25;;;11.61;100.00
57628;BME280;43451;49.060;10.616;2023-04-23T06:32:06;96197.53;;;11.78;100.00
57628;BME280;43451;49.060;10.616;2023-04-23T06:34:32;96213.22;;;11.67;100.00
57628;BME280;43451;49.060;10.616;2023-04-23T06:36:57;96204.25;;;11.70;100.00
57628;BME280;43451;49.060;10.616;2023-04-23T06:39:22;96195.16;;;11.80;100.00
57628;BME280;43451;49.060;10.616;2023-04-23T06:41:48;96196.69;;;11.81;100.00
57628;BME280;43451;49.060;10.616;2023-04-23T06:44:13;96201.53;;;11.70;100.00
57628;BME280;43451;49.060;10.616;2023-04-23T06:46:39;96205.69;;;11.78;100.00
57628;BME280;43451;49.060;10.616;2023-04-23T06:49:04;96203.72;;;11.78;100.00
57628;BME280;43451;49.060;10.616;2023-04-23T06:51:29;96205.69;;;11.78;100.00
57628;BME280;43451;49.060;10.616;2023-04-23T06:53:56;96195.78;;;11.91;100.00
57628;BME280;43451;49.060;10.616;2023-04-23T06:56:22;96195.41;;;11.89;100.00
57628;BME280;43451;49.060;10.616;2023-04-23T06:58:48;96184.19;;;11.87;100.00
57628;BME280;43451;49.060;10.616;2023-04-23T07:01:13;96186.84;;;11.91;100.00
57628;BME280;43451;49.060;10.616;2023-04-23T07:03:38;96186.81;;;11.94;100.00
57628;BME280;43451;49.060;10.616;2023-04-23T07:06:04;96190.66;;;11.97;100.00
57628;BME280;43451;49.060;10.616;2023-04-23T07:08:29;96194.25;;;11.90;100.00
57628;BME280;43451;49.060;10.616;2023-04-23T07:10:54;96189.00;;;11.76;100.00
57628;BME280;43451;49.060;10.616;2023-04-23T07:13:20;96185.78;;;11.84;100.00
57628;BME280;43451;49.060;10.616;2023-04-23T07:15:46;96187.50;;;11.98;100.00
57628;BME280;43451;49.060;10.616;2023-04-23T07:18:12;96188.63;;;12.01;100.00
57628;BME280;43451;49.060;10.616;2023-04-23T07:20:38;96181.72;;;11.96;100.00
57628;BME280;43451;49.060;10.616;2023-04-23T07:23:03;96174.84;;;11.88;100.00
57628;BME280;43451;49.060;10.616;2023-04-23T07:25:29;96170.94;;;11.89;100.00
57628;BME280;43451;49.060;10.616;2023-04-23T07:27:55;96173.31;;;12.11;100.00
57628;BME280;43451;49.060;10.616;2023-04-23T07:30:21;96180.06;;;12.02;100.00
57628;BME280;43451;49.060;10.616;2023-04-23T07:32:47;96168.75;;;12.04;100.00
57628;BME280;43451;49.060;10.616;2023-04-23T07:35:12;96161.81;;;12.23;100.00
57628;BME280;43451;49.060;10.616;2023-04-23T07:37:38;96159.94;;;11.96;100.00
57628;BME280;43451;49.060;10.616;2023-04-23T07:40:03;96161.94;;;12.16;100.00
57628;BME280;43451;49.060;10.616;2023-04-23T07:42:30;96165.97;;;12.07;100.00
57628;BME280;43451;49.060;10.616;2023-04-23T07:44:55;96173.00;;;12.28;100.00
57628;BME280;43451;49.060;10.616;2023-04-23T07:47:20;96171.41;;;12.31;100.00
57628;BME280;43451;49.060;10.616;2023-04-23T07:49:45;96169.84;;;12.30;100.00
57628;BME280;43451;49.060;10.616;2023-04-23T07:52:11;96168.91;;;12.40;100.00
57628;BME280;43451;49.060;10.616;2023-04-23T07:54:36;96172.00;;;12.19;100.00
57628;BME280;43451;49.060;10.616;2023-04-23T07:57:01;96171.81;;;12.29;100.00
57628;BME280;43451;49.060;10.616;2023-04-23T07:59:27;96169.25;;;12.42;100.00
57628;BME280;43451;49.060;10.616;2023-04-23T08:01:53;96172.34;;;12.44;100.00
57628;BME280;43451;49.060;10.616;2023-04-23T08:04:18;96172.66;;;12.90;100.00
57628;BME280;43451;49.060;10.616;2023-04-23T08:06:43;96174.66;;;13.06;100.00
57628;BME280;43451;49.060;10.616;2023-04-23T08:09:09;96167.88;;;13.14;100.00
57628;BME280;43451;49.060;10.616;2023-04-23T08:11:34;96166.44;;;13.29;100.00
57628;BME280;43451;49.060;10.616;2023-04-23T08:14:00;96163.16;;;13.54;100.00
57628;BME280;43451;49.060;10.616;2023-04-23T08:16:28;96161.09;;;13.58;100.00
57628;BME280;43451;49.060;10.616;2023-04-23T08:18:53;96154.19;;;13.70;100.00
57628;BME280;43451;49.060;10.616;2023-04-23T08:21:19;96151.34;;;13.57;100.00
57628;BME280;43451;49.060;10.616;2023-04-23T08:23:44;96150.69;;;13.69;100.00
57628;BME280;43451;49.060;10.616;2023-04-23T08:26:10;96154.44;;;13.23;100.00
57628;BME280;43451;49.060;10.616;2023-04-23T08:28:35;96159.34;;;13.12;100.00
57628;BME280;43451;49.060;10.616;2023-04-23T08:31:00;96159.97;;;13.19;100.00
57628;BME280;43451;49.060;10.616;2023-04-23T08:33:26;96159.53;;;13.41;100.00
57628;BME280;43451;49.060;10.616;2023-04-23T08:35:51;96150.31;;;13.35;100.00
57628;BME280;43451;49.060;10.616;2023-04-23T08:38:16;96144.25;;;13.27;100.00
57628;BME280;43451;49.060;10.616;2023-04-23T08:40:44;96141.06;;;13.65;100.00
57628;BME280;43451;49.060;10.616;2023-04-23T08:43:16;96135.28;;;13.96;100.00
57628;BME280;43451;49.060;10.616;2023-04-23T08:45:45;96132.47;;;13.83;100.00
57628;BME280;43451;49.060;10.616;2023-04-23T08:48:11;96135.94;;;14.00;100.00
57628;BME280;43451;49.060;10.616;2023-04-23T08:50:37;96138.75;;;14.12;100.00
57628;BME280;43451;49.060;10.616;2023-04-23T08:53:03;96136.06;;;14.25;100.00
57628;BME280;43451;49.060;10.616;2023-04-23T08:55:28;96130.50;;;14.29;100.00
57628;BME280;43451;49.060;10.616;2023-04-23T08:57:54;96132.97;;;14.39;100.00
57628;BME280;43451;49.060;10.616;2023-04-23T09:00:20;96132.78;;;14.63;100.00
57628;BME280;43451;49.060;10.616;2023-04-23T09:02:47;96134.44;;;14.73;100.00
57628;BME280;43451;49.060;10.616;2023-04-23T09:05:13;96133.97;;;14.62;100.00
57628;BME280;43451;49.060;10.616;2023-04-23T09:07:38;96133.47;;;14.51;100.00
57628;BME280;43451;49.060;10.616;2023-04-23T09:10:04;96137.38;;;14.66;100.00
57628;BME280;43451;49.060;10.616;2023-04-23T09:12:30;96137.16;;;14.73;100.00
57628;BME280;43451;49.060;10.616;2023-04-23T09:14:56;96136.94;;;14.68;100.00
57628;BME280;43451;49.060;10.616;2023-04-23T09:17:22;96140.97;;;14.63;100.00
57628;BME280;43451;49.060;10.616;2023-04-23T09:19:49;96132.03;;;14.46;100.00
57628;BME280;43451;49.060;10.616;2023-04-23T09:22:29;96133.22;;;14.45;100.00
57628;BME280;43451;49.060;10.616;2023-04-23T09:25:01;96134.66;;;14.50;100.00
57628;BME280;43451;49.060;10.616;2023-04-23T09:27:26;96137.56;;;14.43;98.94
57628;BME280;43451;49.060;10.616;2023-04-23T09:29:51;96134.97;;;14.23;100.00
57628;BME280;43451;49.060;10.616;2023-04-23T09:32:21;96124.81;;;14.23;100.00
57628;BME280;43451;49.060;10.616;2023-04-23T09:34:55;96128.84;;;14.02;100.00
57628;BME280;43451;49.060;10.616;2023-04-23T09:37:20;96121.53;;;13.99;100.00
57628;BME280;43451;49.060;10.616;2023-04-23T09:39:49;96121.81;;;14.17;100.00
57628;BME280;43451;49.060;10.616;2023-04-23T09:42:17;96119.81;;;14.05;100.00
57628;BME280;43451;49.060;10.616;2023-04-23T09:44:42;96119.19;;;14.14;100.00
57628;BME280;43451;49.060;10.616;2023-04-23T09:47:08;96111.00;;;13.98;100.00
57628;BME280;43451;49.060;10.616;2023-04-23T09:49:46;96115.09;;;14.06;100.00
57628;BME280;43451;49.060;10.616;2023-04-23T09:52:12;96110.63;;;14.28;99.41
57628;BME280;43451;49.060;10.616;2023-04-23T09:54:37;96111.50;;;14.25;100.00
57628;BME280;43451;49.060;10.616;2023-04-23T09:57:03;96107.34;;;14.33;100.00
57628;BME280;43451;49.060;10.616;2023-04-23T09:59:32;96110.41;;;14.52;98.34
57628;BME280;43451;49.060;10.616;2023-04-23T10:02:00;96102.28;;;14.48;100.00
57628;BME280;43451;49.060;10.616;2023-04-23T10:04:26;96098.72;;;14.51;100.00
57628;BME280;43451;49.060;10.616;2023-04-23T10:06:55;96096.31;;;14.53;100.00
57628;BME280;43451;49.060;10.616;2023-04-23T10:09:21;96091.63;;;14.54;100.00
57628;BME280;43451;49.060;10.616;2023-04-23T10:11:52;96099.66;;;14.74;94.88
57628;BME280;43451;49.060;10.616;2023-04-23T10:14:21;96100.66;;;14.80;100.00
57628;BME280;43451;49.060;10.616;2023-04-23T10:16:46;96097.78;;;14.71;100.00
57628;BME280;43451;49.060;10.616;2023-04-23T10:19:15;96095.97;;;14.93;98.28
57628;BME280;43451;49.060;10.616;2023-04-23T10:21:42;96091.19;;;15.10;97.54
57628;BME280;43451;49.060;10.616;2023-04-23T10:24:08;96090.97;;;15.17;96.64
57628;BME280;43451;49.060;10.616;2023-04-23T10:26:37;96087.25;;;15.11;94.93
57628;BME280;43451;49.060;10.616;2023-04-23T10:29:03;96082.53;;;14.99;100.00
57628;BME280;43451;49.060;10.616;2023-04-23T10:31:30;96087.00;;;14.93;100.00
57628;BME280;43451;49.060;10.616;2023-04-23T10:33:56;96084.81;;;14.88;100.00
57628;BME280;43451;49.060;10.616;2023-04-23T10:36:22;96083.84;;;14.94;100.00
57628;BME280;43451;49.060;10.616;2023-04-23T10:38:49;96085.25;;;14.99;100.00
57628;BME280;43451;49.060;10.616;2023-04-23T10:41:15;96079.25;;;15.17;95.39
57628;BME280;43451;49.060;10.616;2023-04-23T10:43:43;96083.63;;;15.27;94.22
57628;BME280;43451;49.060;10.616;2023-04-23T10:46:27;96084.28;;;15.31;97.33
57628;BME280;43451;49.060;10.616;2023-04-23T10:49:12;96072.78;;;15.49;89.05
57628;BME280;43451;49.060;10.616;2023-04-23T10:51:38;96070.16;;;15.58;89.14
57628;BME280;43451;49.060;10.616;2023-04-23T10:54:04;96068.19;;;15.71;91.05
57628;BME280;43451;49.060;10.616;2023-04-23T10:56:30;96063.66;;;15.90;93.84
57628;BME280;43451;49.060;10.616;2023-04-23T10:58:56;96058.94;;;15.91;88.99
57628;BME280;43451;49.060;10.616;2023-04-23T11:01:25;96049.84;;;15.94;92.79
57628;BME280;43451;49.060;10.616;2023-04-23T11:03:52;96047.63;;;16.23;89.88
57628;BME280;43451;49.060;10.616;2023-04-23T11:09:02;96044.84;;;16.14;94.63
57628;BME280;43451;49.060;10.616;2023-04-23T11:11:46;96042.06;;;16.27;88.70
57628;BME280;43451;49.060;10.616;2023-04-23T11:14:12;96033.63;;;16.21;92.62
57628;BME280;43451;49.060;10.616;2023-04-23T11:16:40;96037.19;;;16.31;89.24
57628;BME280;43451;49.060;10.616;2023-04-23T11:19:09;96033.75;;;16.40;89.12
57628;BME280;43451;49.060;10.616;2023-04-23T11:24:22;96031.81;;;16.71;83.13
57628;BME280;43451;49.060;10.616;2023-04-23T11:26:48;96030.16;;;16.74;87.78
57628;BME280;43451;49.060;10.616;2023-04-23T11:29:15;96019.56;;;16.85;79.29
57628;BME280;43451;49.060;10.616;2023-04-23T11:31:41;96014.97;;;16.82;74.23
57628;BME280;43451;49.060;10.616;2023-04-23T11:34:07;96014.56;;;16.62;80.70
57628;BME280;43451;49.060;10.616;2023-04-23T11:36:33;96008.34;;;16.70;88.91
57628;BME280;43451;49.060;10.616;2023-04-23T11:38:59;96002.34;;;16.85;87.15
57628;BME280;43451;49.060;10.616;2023-04-23T11:41:27;95996.88;;;16.63;85.09
57628;BME280;43451;49.060;10.616;2023-04-23T11:43:54;95991.97;;;16.36;84.14
57628;BME280;43451;49.060;10.616;2023-04-23T11:46:22;95990.19;;;16.42;87.66
57628;BME280;43451;49.060;10.616;2023-04-23T11:48:47;95984.78;;;16.29;81.73
57628;BME280;43451;49.060;10.616;2023-04-23T11:51:13;95984.66;;;16.33;80.99
57628;BME280;43451;49.060;10.616;2023-04-23T11:53:45;95976.13;;;16.31;81.68
57628;BME280;43451;49.060;10.616;2023-04-23T11:56:10;95974.25;;;16.50;79.33
57628;BME280;43451;49.060;10.616;2023-04-23T11:58:36;95977.44;;;16.48;82.07
57628;BME280;43451;49.060;10.616;2023-04-23T12:01:01;95985.78;;;16.66;84.44
57628;BME280;43451;49.060;10.616;2023-04-23T12:03:26;95976.41;;;16.77;78.85
57628;BME280;43451;49.060;10.616;2023-04-23T12:05:53;95973.75;;;16.73;87.26
57628;BME280;43451;49.060;10.616;2023-04-23T12:08:20;95970.94;;;16.86;81.61
57628;BME280;43451;49.060;10.616;2023-04-23T12:10:49;95973.28;;;16.65;81.47
57628;BME280;43451;49.060;10.616;2023-04-23T12:13:22;95968.69;;;16.62;81.51
57628;BME280;43451;49.060;10.616;2023-04-23T12:15:52;95962.69;;;16.77;81.61
57628;BME280;43451;49.060;10.616;2023-04-23T12:18:20;95960.75;;;16.64;77.44
57628;BME280;43451;49.060;10.616;2023-04-23T12:20:50;95957.31;;;17.04;76.68
57628;BME280;43451;49.060;10.616;2023-04-23T12:23:16;95942.38;;;17.14;73.19
57628;BME280;43451;49.060;10.616;2023-04-23T12:25:41;95942.13;;;17.40;77.24
57628;BME280;43451;49.060;10.616;2023-04-23T12:28:07;95940.16;;;17.68;78.08
57628;BME280;43451;49.060;10.616;2023-04-23T12:30:33;95947.16;;;17.42;73.86
57628;BME280;43451;49.060;10.616;2023-04-23T12:32:59;95938.81;;;17.63;73.28
57628;BME280;43451;49.060;10.616;2023-04-23T12:38:05;95933.78;;;18.08;68.62
57628;BME280;43451;49.060;10.616;2023-04-23T12:40:30;95927.53;;;17.80;66.87
57628;BME280;43451;49.060;10.616;2023-04-23T12:42:56;95936.03;;;17.54;68.78
57628;BME280;43451;49.060;10.616;2023-04-23T12:45:21;95934.50;;;17.35;67.57
57628;BME280;43451;49.060;10.616;2023-04-23T12:47:46;95926.84;;;17.30;66.28